sensor_id;sensor_type;location;lat;lon;timestamp;P1;durP1;ratioP1;P2;durP2;ratioP2
37855;SDS011;23694;43.274;26.924;2024-02-28T00:02:06;19.23;;;8.00;;
37855;SDS011;23694;43.274;26.924;2024-02-28T00:04:32;22.93;;;8.37;;
37855;SDS011;23694;43.274;26.924;2024-02-28T00:06:58;20.93;;;8.47;;
37855;SDS011;23694;43.274;26.924;2024-02-28T00:09:24;21.37;;;8.37;;
37855;SDS011;23694;43.274;26.924;2024-02-28T00:11:57;18.27;;;7.57;;
37855;SDS011;23694;43.274;26.924;2024-02-28T00:14:24;19.73;;;8.70;;
37855;SDS011;23694;43.274;26.924;2024-02-28T00:16:51;22.90;;;10.00;;
37855;SDS011;23694;43.274;26.924;2024-02-28T00:19:17;19.80;;;9.50;;
37855;SDS011;23694;43.274;26.924;2024-02-28T00:21:45;24.83;;;10.97;;
37855;SDS011;23694;43.274;26.924;2024-02-28T00:24:11;26.07;;;10.33;;
37855;SDS011;23694;43.274;26.924;2024-02-28T00:26:41;23.93;;;10.93;;
37855;SDS011;23694;43.274;26.924;2024-02-28T00:29:11;27.17;;;13.33;;
37855;SDS011;23694;43.274;26.924;2024-02-28T00:31:37;28.80;;;14.17;;
37855;SDS011;23694;43.274;26.924;2024-02-28T00:34:03;29.03;;;14.83;;
37855;SDS011;23694;43.274;26.924;2024-02-28T00:36:30;28.73;;;13.87;;
37855;SDS011;23694;43.274;26.924;2024-02-28T00:38:56;19.90;;;11.20;;
37855;SDS011;23694;43.274;26.924;2024-02-28T00:41:22;23.77;;;11.37;;
37855;SDS011;23694;43.274;26.924;2024-02-28T00:43:48;23.50;;;10.43;;
37855;SDS011;23694;43.274;26.924;2024-02-28T00:46:14;20.13;;;10.40;;
37855;SDS011;23694;43.274;26.924;2024-02-28T00:48:40;27.37;;;11.30;;
37855;SDS011;23694;43.274;26.924;2024-02-28T00:51:06;25.20;;;12.17;;
37855;SDS011;23694;43.274;26.924;2024-02-28T00:53:35;23.33;;;11.90;;
37855;SDS011;23694;43.274;26.924;2024-02-28T00:56:02;25.70;;;12.10;;
37855;SDS011;23694;43.274;26.924;2024-02-28T00:58:29;22.23;;;11.67;;
37855;SDS011;23694;43.274;26.924;2024-02-28T01:00:55;27.10;;;11.80;;
37855;SDS011;23694;43.274;26.924;2024-02-28T01:03:22;27.47;;;12.93;;
37855;SDS011;23694;43.274;26.924;2024-02-28T01:05:49;25.07;;;12.00;;
37855;SDS011;23694;43.274;26.924;2024-02-28T01:08:16;23.53;;;12.80;;
37855;SDS011;23694;43.274;26.924;2024-02-28T01:10:43;19.20;;;10.27;;
37855;SDS011;23694;43.274;26.924;2024-02-28T01:13:10;23.27;;;10.23;;
37855;SDS011;23694;43.274;26.924;2024-02-28T01:15:40;21.47;;;9.43;;
37855;SDS011;23694;43.274;26.924;2024-02-28T01:18:09;20.73;;;9.00;;
37855;SDS011;23694;43.274;26.924;2024-02-28T01:20:36;23.23;;;8.63;;
37855;SDS011;23694;43.274;26.924;2024-02-28T01:23:02;17.60;;;8.27;;
37855;SDS011;23694;43.274;26.924;2024-02-28T01:25:29;23.93;;;8.53;;
37855;SDS011;23694;43.274;26.924;2024-02-28T01:27:58;20.80;;;8.20;;
37855;SDS011;23694;43.274;26.924;2024-02-28T01:30:25;19.63;;;8.40;;
37855;SDS011;23694;43.274;26.924;2024-02-28T01:32:51;17.33;;;8.93;;
37855;SDS011;23694;43.274;26.924;2024-02-28T01:35:18;18.83;;;8.40;;
37855;SDS011;23694;43.274;26.924;2024-02-28T01:37:44;20.40;;;8.50;;
37855;SDS011;23694;43.274;26.924;2024-02-28T01:40:10;18.70;;;8.33;;
37855;SDS011;23694;43.274;26.924;2024-02-28T01:42:37;22.17;;;7.30;;
37855;SDS011;23694;43.274;26.924;2024-02-28T01:45:03;21.03;;;8.07;;
37855;SDS011;23694;43.274;26.924;2024-02-28T01:47:29;16.27;;;8.37;;
37855;SDS011;23694;43.274;26.924;2024-02-28T01:49:56;20.97;;;7.63;;
37855;SDS011;23694;43.274;26.924;2024-02-28T01:52:22;16.97;;;8.07;;
37855;SDS011;23694;43.274;26.924;2024-02-28T01:54:48;25.00;;;8.03;;
37855;SDS011;23694;43.274;26.924;2024-02-28T01:57:14;18.73;;;8.03;;
37855;SDS011;23694;43.274;26.924;2024-02-28T01:59:42;19.03;;;7.93;;
37855;SDS011;23694;43.274;26.924;2024-02-28T02:02:08;19.30;;;7.97;;
37855;SDS011;23694;43.274;26.924;2024-02-28T02:04:34;20.80;;;8.80;;
37855;SDS011;23694;43.274;26.924;2024-02-28T02:07:00;17.47;;;8.20;;
37855;SDS011;23694;43.274;26.924;2024-02-28T02:09:26;19.73;;;7.97;;
37855;SDS011;23694;43.274;26.924;2024-02-28T02:11:53;19.63;;;7.80;;
37855;SDS011;23694;43.274;26.924;2024-02-28T02:14:19;16.47;;;7.80;;
37855;SDS011;23694;43.274;26.924;2024-02-28T02:16:45;21.87;;;8.27;;
37855;SDS011;23694;43.274;26.924;2024-02-28T02:19:11;18.20;;;8.07;;
37855;SDS011;23694;43.274;26.924;2024-02-28T02:21:43;22.27;;;8.17;;
37855;SDS011;23694;43.274;26.924;2024-02-28T02:24:18;19.70;;;8.03;;
37855;SDS011;23694;43.274;26.924;2024-02-28T02:26:44;16.50;;;8.93;;
37855;SDS011;23694;43.274;26.924;2024-02-28T02:29:12;18.13;;;9.03;;
37855;SDS011;23694;43.274;26.924;2024-02-28T02:31:38;18.80;;;8.00;;
37855;SDS011;23694;43.274;26.924;2024-02-28T02:34:06;24.47;;;8.73;;
37855;SDS011;23694;43.274;26.924;2024-02-28T02:36:32;23.43;;;9.43;;
37855;SDS011;23694;43.274;26.924;2024-02-28T02:38:59;19.50;;;10.03;;
37855;SDS011;23694;43.274;26.924;2024-02-28T02:41:26;24.23;;;9.73;;
37855;SDS011;23694;43.274;26.924;2024-02-28T02:43:53;27.00;;;11.70;;
37855;SDS011;23694;43.274;26.924;2024-02-28T02:46:20;26.43;;;12.43;;
37855;SDS011;23694;43.274;26.924;2024-02-28T02:48:46;27.00;;;13.20;;
37855;SDS011;23694;43.274;26.924;2024-02-28T02:51:12;28.67;;;13.90;;
37855;SDS011;23694;43.274;26.924;2024-02-28T02:53:38;27.60;;;13.17;;
37855;SDS011;23694;43.274;26.924;2024-02-28T02:56:04;32.03;;;14.13;;
37855;SDS011;23694;43.274;26.924;2024-02-28T02:58:31;23.40;;;12.57;;
37855;SDS011;23694;43.274;26.924;2024-02-28T03:00:57;25.20;;;13.60;;
37855;SDS011;23694;43.274;26.924;2024-02-28T03:03:23;26.53;;;12.90;;
37855;SDS011;23694;43.274;26.924;2024-02-28T03:05:49;27.23;;;12.47;;
37855;SDS011;23694;43.274;26.924;2024-02-28T03:08:15;19.80;;;11.37;;
37855;SDS011;23694;43.274;26.924;2024-02-28T03:10:41;22.87;;;12.67;;
37855;SDS011;23694;43.274;26.924;2024-02-28T03:13:07;22.43;;;12.07;;
37855;SDS011;23694;43.274;26.924;2024-02-28T03:15:34;29.87;;;14.33;;
37855;SDS011;23694;43.274;26.924;2024-02-28T03:18:00;27.57;;;14.63;;
37855;SDS011;23694;43.274;26.924;2024-02-28T03:20:27;28.20;;;15.13;;
37855;SDS011;23694;43.274;26.924;2024-02-28T03:22:53;24.57;;;14.77;;
37855;SDS011;23694;43.274;26.924;2024-02-28T03:25:19;25.43;;;14.97;;
37855;SDS011;23694;43.274;26.924;2024-02-28T03:27:45;25.70;;;15.47;;
37855;SDS011;23694;43.274;26.924;2024-02-28T03:30:11;25.53;;;15.07;;
37855;SDS011;23694;43.274;26.924;2024-02-28T03:32:37;28.13;;;15.90;;
37855;SDS011;23694;43.274;26.924;2024-02-28T03:35:03;30.93;;;16.90;;
37855;SDS011;23694;43.274;26.924;2024-02-28T03:37:31;27.97;;;17.87;;
37855;SDS011;23694;43.274;26.924;2024-02-28T03:39:57;29.77;;;19.07;;
37855;SDS011;23694;43.274;26.924;2024-02-28T03:42:24;29.33;;;18.17;;
37855;SDS011;23694;43.274;26.924;2024-02-28T03:44:50;26.63;;;15.67;;
37855;SDS011;23694;43.274;26.924;2024-02-28T03:47:16;29.23;;;16.60;;
37855;SDS011;23694;43.274;26.924;2024-02-28T03:49:42;26.50;;;15.90;;
37855;SDS011;23694;43.274;26.924;2024-02-28T03:52:10;26.97;;;15.73;;
37855;SDS011;23694;43.274;26.924;2024-02-28T03:54:36;25.60;;;15.97;;
37855;SDS011;23694;43.274;26.924;2024-02-28T03:57:02;26.60;;;17.27;;
37855;SDS011;23694;43.274;26.924;2024-02-28T03:59:28;27.13;;;15.43;;
37855;SDS011;23694;43.274;26.924;2024-02-28T04:01:55;35.33;;;15.50;;
37855;SDS011;23694;43.274;26.924;2024-02-28T04:04:22;27.83;;;16.10;;
37855;SDS011;23694;43.274;26.924;2024-02-28T04:06:48;33.67;;;20.33;;
37855;SDS011;23694;43.274;26.924;2024-02-28T04:09:14;35.53;;;18.20;;
37855;SDS011;23694;43.274;26.924;2024-02-28T04:11:40;66.47;;;41.47;;
37855;SDS011;23694;43.274;26.924;2024-02-28T04:14:08;42.10;;;26.00;;
37855;SDS011;23694;43.274;26.924;2024-02-28T04:16:40;38.97;;;23.53;;
37855;SDS011;23694;43.274;26.924;2024-02-28T04:19:07;40.70;;;21.77;;
37855;SDS011;23694;43.274;26.924;2024-02-28T04:21:34;36.50;;;20.60;;
37855;SDS011;23694;43.274;26.924;2024-02-28T04:24:00;41.37;;;19.47;;
37855;SDS011;23694;43.274;26.924;2024-02-28T04:26:27;38.23;;;21.60;;
37855;SDS011;23694;43.274;26.924;2024-02-28T04:28:53;58.00;;;35.73;;
37855;SDS011;23694;43.274;26.924;2024-02-28T04:31:19;52.87;;;31.13;;
37855;SDS011;23694;43.274;26.924;2024-02-28T04:33:48;40.60;;;22.73;;
37855;SDS011;23694;43.274;26.924;2024-02-28T04:36:17;40.23;;;23.20;;
37855;SDS011;23694;43.274;26.924;2024-02-28T04:38:47;35.10;;;21.57;;
37855;SDS011;23694;43.274;26.924;2024-02-28T04:41:17;35.73;;;21.37;;
37855;SDS011;23694;43.274;26.924;2024-02-28T04:43:43;34.33;;;20.30;;
37855;SDS011;23694;43.274;26.924;2024-02-28T04:46:09;34.90;;;21.80;;
37855;SDS011;23694;43.274;26.924;2024-02-28T04:48:36;30.60;;;19.53;;
37855;SDS011;23694;43.274;26.924;2024-02-28T04:51:03;41.47;;;23.80;;
37855;SDS011;23694;43.274;26.924;2024-02-28T04:53:29;47.70;;;33.07;;
37855;SDS011;23694;43.274;26.924;2024-02-28T04:55:55;47.83;;;29.67;;
37855;SDS011;23694;43.274;26.924;2024-02-28T04:58:22;50.67;;;32.87;;
37855;SDS011;23694;43.274;26.924;2024-02-28T05:00:48;60.17;;;33.87;;
37855;SDS011;23694;43.274;26.924;2024-02-28T05:03:14;51.40;;;30.97;;
37855;SDS011;23694;43.274;26.924;2024-02-28T05:05:40;62.50;;;39.97;;
37855;SDS011;23694;43.274;26.924;2024-02-28T05:08:09;50.70;;;32.80;;
37855;SDS011;23694;43.274;26.924;2024-02-28T05:10:36;64.77;;;41.17;;
37855;SDS011;23694;43.274;26.924;2024-02-28T05:13:03;45.67;;;30.73;;
37855;SDS011;23694;43.274;26.924;2024-02-28T05:15:30;51.07;;;29.07;;
37855;SDS011;23694;43.274;26.924;2024-02-28T05:17:57;53.93;;;31.60;;
37855;SDS011;23694;43.274;26.924;2024-02-28T05:20:23;45.37;;;25.57;;
37855;SDS011;23694;43.274;26.924;2024-02-28T05:22:49;45.50;;;25.80;;
37855;SDS011;23694;43.274;26.924;2024-02-28T05:25:16;41.07;;;22.57;;
37855;SDS011;23694;43.274;26.924;2024-02-28T05:27:42;36.90;;;22.00;;
37855;SDS011;23694;43.274;26.924;2024-02-28T05:30:08;28.87;;;18.13;;
37855;SDS011;23694;43.274;26.924;2024-02-28T05:32:35;21.20;;;13.70;;
37855;SDS011;23694;43.274;26.924;2024-02-28T05:35:01;21.37;;;12.20;;
37855;SDS011;23694;43.274;26.924;2024-02-28T05:37:27;19.30;;;12.20;;
37855;SDS011;23694;43.274;26.924;2024-02-28T05:39:53;19.33;;;12.70;;
37855;SDS011;23694;43.274;26.924;2024-02-28T05:42:20;19.53;;;13.77;;
37855;SDS011;23694;43.274;26.924;2024-02-28T05:44:49;21.60;;;13.10;;
37855;SDS011;23694;43.274;26.924;2024-02-28T05:47:16;22.33;;;15.93;;
37855;SDS011;23694;43.274;26.924;2024-02-28T05:49:42;26.10;;;16.07;;
37855;SDS011;23694;43.274;26.924;2024-02-28T05:52:09;22.80;;;15.20;;
37855;SDS011;23694;43.274;26.924;2024-02-28T05:54:35;23.87;;;15.37;;
37855;SDS011;23694;43.274;26.924;2024-02-28T05:57:01;24.20;;;13.13;;
37855;SDS011;23694;43.274;26.924;2024-02-28T05:59:27;20.67;;;12.10;;
37855;SDS011;23694;43.274;26.924;2024-02-28T06:01:53;20.07;;;12.67;;
37855;SDS011;23694;43.274;26.924;2024-02-28T06:04:20;17.57;;;13.07;;
37855;SDS011;23694;43.274;26.924;2024-02-28T06:06:46;24.07;;;13.27;;
37855;SDS011;23694;43.274;26.924;2024-02-28T06:09:12;14.67;;;10.67;;
37855;SDS011;23694;43.274;26.924;2024-02-28T06:11:38;16.90;;;9.30;;
37855;SDS011;23694;43.274;26.924;2024-02-28T06:14:04;11.87;;;8.13;;
37855;SDS011;23694;43.274;26.924;2024-02-28T06:16:31;11.60;;;7.80;;
37855;SDS011;23694;43.274;26.924;2024-02-28T06:18:57;8.63;;;6.63;;
37855;SDS011;23694;43.274;26.924;2024-02-28T06:21:23;11.43;;;6.33;;
37855;SDS011;23694;43.274;26.924;2024-02-28T06:23:49;9.23;;;6.10;;
37855;SDS011;23694;43.274;26.924;2024-02-28T06:26:15;8.30;;;5.67;;
37855;SDS011;23694;43.274;26.924;2024-02-28T06:28:44;7.37;;;5.53;;
37855;SDS011;23694;43.274;26.924;2024-02-28T06:31:16;6.87;;;5.40;;
37855;SDS011;23694;43.274;26.924;2024-02-28T06:33:43;8.43;;;5.70;;
37855;SDS011;23694;43.274;26.924;2024-02-28T06:36:09;12.87;;;8.80;;
37855;SDS011;23694;43.274;26.924;2024-02-28T06:38:35;11.63;;;8.43;;
37855;SDS011;23694;43.274;26.924;2024-02-28T06:41:05;10.37;;;6.97;;
37855;SDS011;23694;43.274;26.924;2024-02-28T06:43:34;12.20;;;7.20;;
37855;SDS011;23694;43.274;26.924;2024-02-28T06:46:01;9.80;;;7.13;;
37855;SDS011;23694;43.274;26.924;2024-02-28T06:48:28;15.20;;;8.63;;
37855;SDS011;23694;43.274;26.924;2024-02-28T06:50:55;16.00;;;8.80;;
37855;SDS011;23694;43.274;26.924;2024-02-28T06:53:21;13.57;;;9.17;;
37855;SDS011;23694;43.274;26.924;2024-02-28T06:55:48;13.73;;;9.30;;
37855;SDS011;23694;43.274;26.924;2024-02-28T06:58:14;13.90;;;9.50;;
37855;SDS011;23694;43.274;26.924;2024-02-28T07:00:41;14.73;;;8.90;;
37855;SDS011;23694;43.274;26.924;2024-02-28T07:03:07;14.67;;;9.57;;
37855;SDS011;23694;43.274;26.924;2024-02-28T07:05:33;15.00;;;8.73;;
37855;SDS011;23694;43.274;26.924;2024-02-28T07:08:00;15.63;;;8.80;;
37855;SDS011;23694;43.274;26.924;2024-02-28T07:10:26;15.37;;;8.77;;
37855;SDS011;23694;43.274;26.924;2024-02-28T07:12:52;15.03;;;9.80;;
37855;SDS011;23694;43.274;26.924;2024-02-28T07:15:19;19.00;;;9.97;;
37855;SDS011;23694;43.274;26.924;2024-02-28T07:17:47;15.37;;;9.33;;
37855;SDS011;23694;43.274;26.924;2024-02-28T07:20:13;13.63;;;8.50;;
37855;SDS011;23694;43.274;26.924;2024-02-28T07:22:42;13.50;;;7.80;;
37855;SDS011;23694;43.274;26.924;2024-02-28T07:25:11;11.43;;;7.60;;
37855;SDS011;23694;43.274;26.924;2024-02-28T07:27:37;13.83;;;8.33;;
37855;SDS011;23694;43.274;26.924;2024-02-28T07:30:03;15.27;;;8.47;;
37855;SDS011;23694;43.274;26.924;2024-02-28T07:32:30;18.77;;;10.67;;
37855;SDS011;23694;43.274;26.924;2024-02-28T07:35:01;23.40;;;11.87;;
37855;SDS011;23694;43.274;26.924;2024-02-28T07:37:28;17.57;;;10.57;;
37855;SDS011;23694;43.274;26.924;2024-02-28T07:39:55;18.13;;;10.40;;
37855;SDS011;23694;43.274;26.924;2024-02-28T07:42:21;19.50;;;10.90;;
37855;SDS011;23694;43.274;26.924;2024-02-28T07:44:47;15.17;;;8.77;;
37855;SDS011;23694;43.274;26.924;2024-02-28T07:47:22;13.10;;;8.40;;
37855;SDS011;23694;43.274;26.924;2024-02-28T07:49:50;20.37;;;10.13;;
37855;SDS011;23694;43.274;26.924;2024-02-28T07:52:16;18.57;;;9.63;;
37855;SDS011;23694;43.274;26.924;2024-02-28T07:54:42;22.77;;;10.37;;
37855;SDS011;23694;43.274;26.924;2024-02-28T07:57:09;18.50;;;9.30;;
37855;SDS011;23694;43.274;26.924;2024-02-28T07:59:41;18.03;;;10.30;;
37855;SDS011;23694;43.274;26.924;2024-02-28T08:04:33;21.53;;;11.33;;
37855;SDS011;23694;43.274;26.924;2024-02-28T08:07:00;20.17;;;10.83;;
37855;SDS011;23694;43.274;26.924;2024-02-28T08:09:26;18.30;;;9.80;;
37855;SDS011;23694;43.274;26.924;2024-02-28T08:11:54;19.50;;;10.00;;
37855;SDS011;23694;43.274;26.924;2024-02-28T08:14:20;23.20;;;10.27;;
37855;SDS011;23694;43.274;26.924;2024-02-28T08:16:46;25.63;;;10.10;;
37855;SDS011;23694;43.274;26.924;2024-02-28T08:19:13;23.73;;;9.50;;
37855;SDS011;23694;43.274;26.924;2024-02-28T08:21:39;19.47;;;8.57;;
37855;SDS011;23694;43.274;26.924;2024-02-28T08:24:05;18.23;;;9.13;;
37855;SDS011;23694;43.274;26.924;2024-02-28T08:26:32;18.87;;;10.23;;
37855;SDS011;23694;43.274;26.924;2024-02-28T08:28:58;18.70;;;9.73;;
37855;SDS011;23694;43.274;26.924;2024-02-28T08:31:24;16.53;;;9.20;;
37855;SDS011;23694;43.274;26.924;2024-02-28T08:33:50;20.40;;;10.53;;
37855;SDS011;23694;43.274;26.924;2024-02-28T08:36:18;15.30;;;8.80;;
37855;SDS011;23694;43.274;26.924;2024-02-28T08:38:44;17.33;;;8.63;;
37855;SDS011;23694;43.274;26.924;2024-02-28T08:41:10;14.53;;;8.17;;
37855;SDS011;23694;43.274;26.924;2024-02-28T08:43:38;12.97;;;8.33;;
37855;SDS011;23694;43.274;26.924;2024-02-28T08:46:05;17.97;;;8.03;;
37855;SDS011;23694;43.274;26.924;2024-02-28T08:48:32;17.50;;;7.60;;
37855;SDS011;23694;43.274;26.924;2024-02-28T08:50:59;13.77;;;7.10;;
37855;SDS011;23694;43.274;26.924;2024-02-28T08:53:25;16.27;;;8.77;;
37855;SDS011;23694;43.274;26.924;2024-02-28T08:55:52;20.17;;;9.60;;
37855;SDS011;23694;43.274;26.924;2024-02-28T08:58:18;16.80;;;7.43;;
37855;SDS011;23694;43.274;26.924;2024-02-28T09:00:44;16.13;;;8.50;;
37855;SDS011;23694;43.274;26.924;2024-02-28T09:03:11;18.60;;;9.37;;
37855;SDS011;23694;43.274;26.924;2024-02-28T09:05:37;14.30;;;9.10;;
37855;SDS011;23694;43.274;26.924;2024-02-28T09:08:03;27.27;;;11.23;;
37855;SDS011;23694;43.274;26.924;2024-02-28T09:10:30;20.57;;;11.23;;
37855;SDS011;23694;43.274;26.924;2024-02-28T09:13:00;24.77;;;11.17;;
37855;SDS011;23694;43.274;26.924;2024-02-28T09:15:26;23.00;;;11.73;;
37855;SDS011;23694;43.274;26.924;2024-02-28T09:17:52;25.00;;;11.77;;
37855;SDS011;23694;43.274;26.924;2024-02-28T09:20:18;21.60;;;11.80;;
37855;SDS011;23694;43.274;26.924;2024-02-28T09:22:45;25.07;;;11.87;;
37855;SDS011;23694;43.274;26.924;2024-02-28T09:25:11;17.73;;;11.30;;
37855;SDS011;23694;43.274;26.924;2024-02-28T09:27:37;19.20;;;10.80;;
37855;SDS011;23694;43.274;26.924;2024-02-28T09:30:04;20.90;;;10.37;;
37855;SDS011;23694;43.274;26.924;2024-02-28T09:32:31;19.37;;;10.73;;
37855;SDS011;23694;43.274;26.924;2024-02-28T09:34:57;26.40;;;11.70;;
37855;SDS011;23694;43.274;26.924;2024-02-28T09:37:23;22.27;;;11.20;;
37855;SDS011;23694;43.274;26.924;2024-02-28T09:39:50;29.23;;;11.90;;
37855;SDS011;23694;43.274;26.924;2024-02-28T09:42:18;23.13;;;11.40;;
37855;SDS011;23694;43.274;26.924;2024-02-28T09:44:44;24.53;;;11.73;;
37855;SDS011;23694;43.274;26.924;2024-02-28T09:47:11;23.57;;;12.20;;
37855;SDS011;23694;43.274;26.924;2024-02-28T09:49:38;20.40;;;11.57;;
37855;SDS011;23694;43.274;26.924;2024-02-28T09:52:08;22.97;;;11.33;;
37855;SDS011;23694;43.274;26.924;2024-02-28T09:54:34;27.27;;;11.53;;
37855;SDS011;23694;43.274;26.924;2024-02-28T09:57:00;18.07;;;9.97;;
37855;SDS011;23694;43.274;26.924;2024-02-28T09:59:28;25.30;;;11.83;;
37855;SDS011;23694;43.274;26.924;2024-02-28T10:01:58;26.13;;;11.20;;
37855;SDS011;23694;43.274;26.924;2024-02-28T10:04:27;26.33;;;11.75;;
37855;SDS011;23694;43.274;26.924;2024-02-28T10:06:53;25.67;;;11.50;;
37855;SDS011;23694;43.274;26.924;2024-02-28T10:09:19;20.87;;;11.53;;
37855;SDS011;23694;43.274;26.924;2024-02-28T10:11:46;24.33;;;11.50;;
37855;SDS011;23694;43.274;26.924;2024-02-28T10:14:14;21.13;;;10.13;;
37855;SDS011;23694;43.274;26.924;2024-02-28T10:16:43;26.43;;;11.33;;
37855;SDS011;23694;43.274;26.924;2024-02-28T10:19:09;24.27;;;10.33;;
37855;SDS011;23694;43.274;26.924;2024-02-28T10:21:35;21.63;;;9.60;;
37855;SDS011;23694;43.274;26.924;2024-02-28T10:24:01;22.20;;;9.93;;
37855;SDS011;23694;43.274;26.924;2024-02-28T10:26:28;23.03;;;9.87;;
37855;SDS011;23694;43.274;26.924;2024-02-28T10:28:57;24.50;;;10.40;;
37855;SDS011;23694;43.274;26.924;2024-02-28T10:31:23;15.83;;;8.03;;
37855;SDS011;23694;43.274;26.924;2024-02-28T10:33:49;17.37;;;8.57;;
37855;SDS011;23694;43.274;26.924;2024-02-28T10:36:16;13.63;;;7.53;;
37855;SDS011;23694;43.274;26.924;2024-02-28T10:38:42;21.00;;;10.63;;
37855;SDS011;23694;43.274;26.924;2024-02-28T10:41:08;18.83;;;8.87;;
37855;SDS011;23694;43.274;26.924;2024-02-28T10:43:38;16.77;;;8.53;;
37855;SDS011;23694;43.274;26.924;2024-02-28T10:46:06;17.93;;;9.17;;
37855;SDS011;23694;43.274;26.924;2024-02-28T10:48:35;16.73;;;9.33;;
37855;SDS011;23694;43.274;26.924;2024-02-28T10:51:02;17.03;;;8.03;;
37855;SDS011;23694;43.274;26.924;2024-02-28T10:53:36;16.10;;;8.07;;
37855;SDS011;23694;43.274;26.924;2024-02-28T10:56:09;17.20;;;8.13;;
37855;SDS011;23694;43.274;26.924;2024-02-28T10:58:37;15.60;;;8.83;;
37855;SDS011;23694;43.274;26.924;2024-02-28T11:01:26;20.13;;;9.63;;
37855;SDS011;23694;43.274;26.924;2024-02-28T11:03:55;15.47;;;8.37;;
37855;SDS011;23694;43.274;26.924;2024-02-28T11:06:22;12.60;;;8.10;;
37855;SDS011;23694;43.274;26.924;2024-02-28T11:08:49;15.90;;;8.17;;
37855;SDS011;23694;43.274;26.924;2024-02-28T11:11:19;20.97;;;8.13;;
37855;SDS011;23694;43.274;26.924;2024-02-28T11:13:52;14.67;;;8.30;;
37855;SDS011;23694;43.274;26.924;2024-02-28T11:16:34;18.30;;;8.20;;
37855;SDS011;23694;43.274;26.924;2024-02-28T11:19:02;17.07;;;8.13;;
37855;SDS011;23694;43.274;26.924;2024-02-28T11:21:33;15.73;;;7.80;;
37855;SDS011;23694;43.274;26.924;2024-02-28T11:24:01;16.50;;;7.23;;
37855;SDS011;23694;43.274;26.924;2024-02-28T11:26:27;13.87;;;7.60;;
37855;SDS011;23694;43.274;26.924;2024-02-28T11:28:57;15.23;;;7.63;;
37855;SDS011;23694;43.274;26.924;2024-02-28T11:31:23;13.33;;;7.23;;
37855;SDS011;23694;43.274;26.924;2024-02-28T11:33:49;17.40;;;7.83;;
37855;SDS011;23694;43.274;26.924;2024-02-28T11:36:16;14.20;;;7.20;;
37855;SDS011;23694;43.274;26.924;2024-02-28T11:38:42;13.30;;;7.40;;
37855;SDS011;23694;43.274;26.924;2024-02-28T11:41:08;16.20;;;6.80;;
37855;SDS011;23694;43.274;26.924;2024-02-28T11:43:34;11.67;;;6.83;;
37855;SDS011;23694;43.274;26.924;2024-02-28T11:46:01;13.47;;;6.60;;
37855;SDS011;23694;43.274;26.924;2024-02-28T11:48:27;17.90;;;5.90;;
37855;SDS011;23694;43.274;26.924;2024-02-28T11:50:56;9.70;;;5.53;;
37855;SDS011;23694;43.274;26.924;2024-02-28T11:53:25;11.13;;;5.60;;
37855;SDS011;23694;43.274;26.924;2024-02-28T11:55:54;10.63;;;5.53;;
37855;SDS011;23694;43.274;26.924;2024-02-28T11:58:23;8.33;;;5.10;;
37855;SDS011;23694;43.274;26.924;2024-02-28T12:00:50;13.80;;;4.87;;
37855;SDS011;23694;43.274;26.924;2024-02-28T12:03:20;15.93;;;6.10;;
37855;SDS011;23694;43.274;26.924;2024-02-28T12:05:51;10.87;;;4.87;;
37855;SDS011;23694;43.274;26.924;2024-02-28T12:08:18;14.30;;;5.67;;
37855;SDS011;23694;43.274;26.924;2024-02-28T12:10:46;13.33;;;4.83;;
37855;SDS011;23694;43.274;26.924;2024-02-28T12:13:16;12.67;;;5.53;;
37855;SDS011;23694;43.274;26.924;2024-02-28T12:15:45;11.90;;;5.67;;
37855;SDS011;23694;43.274;26.924;2024-02-28T12:18:14;14.73;;;5.27;;
37855;SDS011;23694;43.274;26.924;2024-02-28T12:20:41;11.50;;;4.67;;
37855;SDS011;23694;43.274;26.924;2024-02-28T12:23:07;14.20;;;6.00;;
37855;SDS011;23694;43.274;26.924;2024-02-28T12:25:33;11.03;;;5.03;;
37855;SDS011;23694;43.274;26.924;2024-02-28T12:28:03;10.40;;;5.03;;
37855;SDS011;23694;43.274;26.924;2024-02-28T12:30:38;12.07;;;4.97;;
37855;SDS011;23694;43.274;26.924;2024-02-28T12:33:07;11.03;;;5.53;;
37855;SDS011;23694;43.274;26.924;2024-02-28T12:35:33;11.33;;;5.13;;
37855;SDS011;23694;43.274;26.924;2024-02-28T12:37:59;13.20;;;6.00;;
37855;SDS011;23694;43.274;26.924;2024-02-28T12:40:26;12.83;;;5.27;;
37855;SDS011;23694;43.274;26.924;2024-02-28T12:42:52;10.83;;;5.23;;
37855;SDS011;23694;43.274;26.924;2024-02-28T12:45:18;13.67;;;5.37;;
37855;SDS011;23694;43.274;26.924;2024-02-28T12:47:45;13.40;;;5.17;;
37855;SDS011;23694;43.274;26.924;2024-02-28T12:50:11;14.47;;;5.13;;
37855;SDS011;23694;43.274;26.924;2024-02-28T12:52:37;23.73;;;15.80;;
37855;SDS011;23694;43.274;26.924;2024-02-28T12:55:03;10.90;;;4.77;;
37855;SDS011;23694;43.274;26.924;2024-02-28T12:57:29;15.17;;;5.33;;
37855;SDS011;23694;43.274;26.924;2024-02-28T12:59:56;13.57;;;4.80;;
37855;SDS011;23694;43.274;26.924;2024-02-28T13:02:22;11.73;;;5.10;;
37855;SDS011;23694;43.274;26.924;2024-02-28T13:04:48;12.33;;;4.97;;
37855;SDS011;23694;43.274;26.924;2024-02-28T13:07:14;14.50;;;5.20;;
37855;SDS011;23694;43.274;26.924;2024-02-28T13:09:41;10.73;;;4.87;;
37855;SDS011;23694;43.274;26.924;2024-02-28T13:12:07;13.27;;;4.60;;
37855;SDS011;23694;43.274;26.924;2024-02-28T13:14:34;8.97;;;4.50;;
37855;SDS011;23694;43.274;26.924;2024-02-28T13:54:24;11.57;;;5.13;;
37855;SDS011;23694;43.274;26.924;2024-02-28T13:56:50;11.47;;;4.67;;
37855;SDS011;23694;43.274;26.924;2024-02-28T13:59:16;9.17;;;4.40;;
37855;SDS011;23694;43.274;26.924;2024-02-28T14:01:42;14.57;;;5.03;;
37855;SDS011;23694;43.274;26.924;2024-02-28T14:04:09;12.70;;;4.80;;
37855;SDS011;23694;43.274;26.924;2024-02-28T14:06:35;10.83;;;4.63;;
37855;SDS011;23694;43.274;26.924;2024-02-28T14:09:02;14.27;;;5.10;;
37855;SDS011;23694;43.274;26.924;2024-02-28T14:11:30;8.57;;;4.40;;
37855;SDS011;23694;43.274;26.924;2024-02-28T14:13:57;10.77;;;4.20;;
37855;SDS011;23694;43.274;26.924;2024-02-28T14:16:24;9.47;;;4.50;;
37855;SDS011;23694;43.274;26.924;2024-02-28T14:18:51;11.87;;;4.87;;
37855;SDS011;23694;43.274;26.924;2024-02-28T14:21:18;8.87;;;3.97;;
37855;SDS011;23694;43.274;26.924;2024-02-28T14:23:46;15.00;;;4.50;;
37855;SDS011;23694;43.274;26.924;2024-02-28T14:26:14;11.77;;;4.33;;
37855;SDS011;23694;43.274;26.924;2024-02-28T14:28:40;10.93;;;4.73;;
37855;SDS011;23694;43.274;26.924;2024-02-28T14:31:06;9.87;;;5.00;;
37855;SDS011;23694;43.274;26.924;2024-02-28T14:33:33;7.43;;;4.00;;
37855;SDS011;23694;43.274;26.924;2024-02-28T14:36:00;14.07;;;5.20;;
37855;SDS011;23694;43.274;26.924;2024-02-28T14:38:31;13.27;;;4.30;;
37855;SDS011;23694;43.274;26.924;2024-02-28T14:40:57;15.10;;;4.70;;
37855;SDS011;23694;43.274;26.924;2024-02-28T14:43:24;11.80;;;5.00;;
37855;SDS011;23694;43.274;26.924;2024-02-28T14:45:52;8.70;;;4.43;;
37855;SDS011;23694;43.274;26.924;2024-02-28T14:48:19;16.53;;;5.43;;
37855;SDS011;23694;43.274;26.924;2024-02-28T14:50:48;11.90;;;4.53;;
37855;SDS011;23694;43.274;26.924;2024-02-28T14:53:14;13.07;;;5.20;;
37855;SDS011;23694;43.274;26.924;2024-02-28T14:55:42;14.07;;;4.50;;